sensor_id;sensor_type;location;lat;lon;timestamp;pressure;altitude;pressure_sealevel;temperature
69435;BMP180;56625;54.322;18.582;2023-11-19T00:00:31;101354.80;;;2.30
69435;BMP180;56625;54.322;18.582;2023-11-19T00:03:19;101342.40;;;2.20
69435;BMP180;56625;54.322;18.582;2023-11-19T00:05:48;101335.60;;;2.18
69435;BMP180;56625;54.322;18.582;2023-11-19T00:08:16;101332.60;;;2.10
69435;BMP180;56625;54.322;18.582;2023-11-19T00:10:44;101330.40;;;2.10
69435;BMP180;56625;54.322;18.582;2023-11-19T00:13:14;101331.80;;;2.00
69435;BMP180;56625;54.322;18.582;2023-11-19T00:15:42;101328.00;;;2.00
69435;BMP180;56625;54.322;18.582;2023-11-19T00:18:10;101322.40;;;2.00
69435;BMP180;56625;54.322;18.582;2023-11-19T00:20:38;101323.40;;;1.98
69435;BMP180;56625;54.322;18.582;2023-11-19T00:23:06;101320.80;;;1.92
69435;BMP180;56625;54.322;18.582;2023-11-19T00:25:34;101318.80;;;1.90
69435;BMP180;56625;54.322;18.582;2023-11-19T00:28:02;101315.00;;;1.90
69435;BMP180;56625;54.322;18.582;2023-11-19T00:30:30;101314.60;;;1.90
69435;BMP180;56625;54.322;18.582;2023-11-19T00:32:59;101317.00;;;1.90
69435;BMP180;56625;54.322;18.582;2023-11-19T00:35:27;101317.40;;;1.90
69435;BMP180;56625;54.322;18.582;2023-11-19T00:37:55;101310.00;;;1.80
69435;BMP180;56625;54.322;18.582;2023-11-19T00:40:23;101311.80;;;1.80
69435;BMP180;56625;54.322;18.582;2023-11-19T00:42:51;101313.40;;;1.72
69435;BMP180;56625;54.322;18.582;2023-11-19T00:45:20;101312.20;;;1.70
69435;BMP180;56625;54.322;18.582;2023-11-19T00:47:48;101312.20;;;1.70
69435;BMP180;56625;54.322;18.582;2023-11-19T00:50:16;101310.60;;;1.70
69435;BMP180;56625;54.322;18.582;2023-11-19T00:52:45;101303.00;;;1.70
69435;BMP180;56625;54.322;18.582;2023-11-19T00:55:13;101299.80;;;1.70
69435;BMP180;56625;54.322;18.582;2023-11-19T00:57:41;101295.80;;;1.70
69435;BMP180;56625;54.322;18.582;2023-11-19T01:00:10;101292.60;;;1.70
69435;BMP180;56625;54.322;18.582;2023-11-19T01:02:48;101287.00;;;1.70
69435;BMP180;56625;54.322;18.582;2023-11-19T01:05:20;101288.00;;;1.70
69435;BMP180;56625;54.322;18.582;2023-11-19T01:07:51;101289.20;;;1.70
69435;BMP180;56625;54.322;18.582;2023-11-19T01:10:22;101289.40;;;1.70
69435;BMP180;56625;54.322;18.582;2023-11-19T01:12:51;101294.00;;;1.70
69435;BMP180;56625;54.322;18.582;2023-11-19T01:15:20;101288.20;;;1.70
69435;BMP180;56625;54.322;18.582;2023-11-19T01:17:48;101280.80;;;1.68
69435;BMP180;56625;54.322;18.582;2023-11-19T01:20:21;101271.80;;;1.70
69435;BMP180;56625;54.322;18.582;2023-11-19T01:22:50;101269.80;;;1.70
69435;BMP180;56625;54.322;18.582;2023-11-19T01:25:18;101265.80;;;1.70
69435;BMP180;56625;54.322;18.582;2023-11-19T01:27:47;101260.40;;;1.70
69435;BMP180;56625;54.322;18.582;2023-11-19T01:30:15;101262.40;;;1.68
69435;BMP180;56625;54.322;18.582;2023-11-19T01:32:43;101256.60;;;1.70
69435;BMP180;56625;54.322;18.582;2023-11-19T01:35:12;101251.00;;;1.60
69435;BMP180;56625;54.322;18.582;2023-11-19T01:37:40;101258.40;;;1.60
69435;BMP180;56625;54.322;18.582;2023-11-19T01:40:08;101258.80;;;1.60
69435;BMP180;56625;54.322;18.582;2023-11-19T01:42:40;101253.80;;;1.60
69435;BMP180;56625;54.322;18.582;2023-11-19T01:45:09;101246.40;;;1.60
69435;BMP180;56625;54.322;18.582;2023-11-19T01:47:44;101243.00;;;1.60
69435;BMP180;56625;54.322;18.582;2023-11-19T01:50:12;101235.00;;;1.56
69435;BMP180;56625;54.322;18.582;2023-11-19T01:52:41;101229.00;;;1.56
69435;BMP180;56625;54.322;18.582;2023-11-19T01:55:11;101230.60;;;1.60
69435;BMP180;56625;54.322;18.582;2023-11-19T01:57:40;101225.40;;;1.60
69435;BMP180;56625;54.322;18.582;2023-11-19T02:00:10;101215.80;;;1.56
69435;BMP180;56625;54.322;18.582;2023-11-19T02:02:40;101213.00;;;1.52
69435;BMP180;56625;54.322;18.582;2023-11-19T02:05:13;101212.00;;;1.54
69435;BMP180;56625;54.322;18.582;2023-11-19T02:07:41;101208.80;;;1.50
69435;BMP180;56625;54.322;18.582;2023-11-19T02:10:10;101198.20;;;1.50
69435;BMP180;56625;54.322;18.582;2023-11-19T02:12:42;101192.80;;;1.50
69435;BMP180;56625;54.322;18.582;2023-11-19T02:15:11;101189.20;;;1.50
69435;BMP180;56625;54.322;18.582;2023-11-19T02:17:39;101187.80;;;1.50
69435;BMP180;56625;54.322;18.582;2023-11-19T02:20:08;101177.00;;;1.50
69435;BMP180;56625;54.322;18.582;2023-11-19T02:22:41;101171.00;;;1.50
69435;BMP180;56625;54.322;18.582;2023-11-19T02:25:31;101164.60;;;1.58
69435;BMP180;56625;54.322;18.582;2023-11-19T02:28:02;101162.60;;;1.60
69435;BMP180;56625;54.322;18.582;2023-11-19T02:30:31;101158.40;;;1.60
69435;BMP180;56625;54.322;18.582;2023-11-19T02:32:59;101150.00;;;1.60
69435;BMP180;56625;54.322;18.582;2023-11-19T02:35:33;101146.80;;;1.58
69435;BMP180;56625;54.322;18.582;2023-11-19T02:38:01;101142.40;;;1.52
69435;BMP180;56625;54.322;18.582;2023-11-19T02:40:31;101134.00;;;1.50
69435;BMP180;56625;54.322;18.582;2023-11-19T02:43:00;101133.60;;;1.50
69435;BMP180;56625;54.322;18.582;2023-11-19T02:45:28;101132.40;;;1.50
69435;BMP180;56625;54.322;18.582;2023-11-19T02:47:59;101129.60;;;1.50
69435;BMP180;56625;54.322;18.582;2023-11-19T02:50:29;101123.40;;;1.40
69435;BMP180;56625;54.322;18.582;2023-11-19T02:52:59;101129.60;;;1.40
69435;BMP180;56625;54.322;18.582;2023-11-19T02:55:28;101135.40;;;1.40
69435;BMP180;56625;54.322;18.582;2023-11-19T02:57:58;101124.80;;;1.30
69435;BMP180;56625;54.322;18.582;2023-11-19T03:00:28;101116.60;;;1.30
69435;BMP180;56625;54.322;18.582;2023-11-19T03:03:04;101113.40;;;1.28
69435;BMP180;56625;54.322;18.582;2023-11-19T03:05:47;101112.20;;;1.20
69435;BMP180;56625;54.322;18.582;2023-11-19T03:08:15;101108.40;;;1.20
69435;BMP180;56625;54.322;18.582;2023-11-19T03:10:47;101101.00;;;1.20
69435;BMP180;56625;54.322;18.582;2023-11-19T03:13:15;101105.60;;;1.20
69435;BMP180;56625;54.322;18.582;2023-11-19T03:15:45;101101.40;;;1.20
69435;BMP180;56625;54.322;18.582;2023-11-19T03:18:14;101100.40;;;1.20
69435;BMP180;56625;54.322;18.582;2023-11-19T03:20:42;101091.60;;;1.20
69435;BMP180;56625;54.322;18.582;2023-11-19T03:23:10;101087.40;;;1.20
69435;BMP180;56625;54.322;18.582;2023-11-19T03:25:38;101084.60;;;1.20
69435;BMP180;56625;54.322;18.582;2023-11-19T03:28:06;101074.40;;;1.16
69435;BMP180;56625;54.322;18.582;2023-11-19T03:30:35;101066.20;;;1.10
69435;BMP180;56625;54.322;18.582;2023-11-19T03:33:03;101060.80;;;1.10
69435;BMP180;56625;54.322;18.582;2023-11-19T03:35:31;101057.00;;;1.08
69435;BMP180;56625;54.322;18.582;2023-11-19T03:38:01;101056.00;;;1.00
69435;BMP180;56625;54.322;18.582;2023-11-19T03:40:29;101058.00;;;1.00
69435;BMP180;56625;54.322;18.582;2023-11-19T03:42:58;101060.80;;;1.00
69435;BMP180;56625;54.322;18.582;2023-11-19T03:45:27;101056.80;;;1.00
69435;BMP180;56625;54.322;18.582;2023-11-19T03:47:55;101050.00;;;1.00
69435;BMP180;56625;54.322;18.582;2023-11-19T03:50:23;101043.00;;;1.00
69435;BMP180;56625;54.322;18.582;2023-11-19T03:52:51;101041.00;;;0.98
69435;BMP180;56625;54.322;18.582;2023-11-19T03:55:20;101034.00;;;0.90
69435;BMP180;56625;54.322;18.582;2023-11-19T03:57:48;101023.20;;;0.90
69435;BMP180;56625;54.322;18.582;2023-11-19T04:00:17;101022.60;;;0.84
69435;BMP180;56625;54.322;18.582;2023-11-19T04:02:45;101016.00;;;0.80
69435;BMP180;56625;54.322;18.582;2023-11-19T04:05:15;101010.40;;;0.80
69435;BMP180;56625;54.322;18.582;2023-11-19T04:07:43;101003.20;;;0.80
69435;BMP180;56625;54.322;18.582;2023-11-19T04:10:11;101001.60;;;0.80
69435;BMP180;56625;54.322;18.582;2023-11-19T04:12:39;100999.40;;;0.72
69435;BMP180;56625;54.322;18.582;2023-11-19T04:15:08;100997.00;;;0.70
69435;BMP180;56625;54.322;18.582;2023-11-19T04:17:36;100996.60;;;0.70
69435;BMP180;56625;54.322;18.582;2023-11-19T04:20:06;100992.00;;;0.70
69435;BMP180;56625;54.322;18.582;2023-11-19T04:22:38;100981.80;;;0.70
69435;BMP180;56625;54.322;18.582;2023-11-19T04:25:07;100968.40;;;0.70
69435;BMP180;56625;54.322;18.582;2023-11-19T04:27:35;100961.80;;;0.72
69435;BMP180;56625;54.322;18.582;2023-11-19T04:30:04;100959.00;;;0.72
69435;BMP180;56625;54.322;18.582;2023-11-19T04:32:32;100964.60;;;0.70
69435;BMP180;56625;54.322;18.582;2023-11-19T04:35:00;100961.20;;;0.70
69435;BMP180;56625;54.322;18.582;2023-11-19T04:37:29;100961.00;;;0.70
69435;BMP180;56625;54.322;18.582;2023-11-19T04:39:57;100947.00;;;0.76
69435;BMP180;56625;54.322;18.582;2023-11-19T04:42:25;100944.40;;;0.80
69435;BMP180;56625;54.322;18.582;2023-11-19T04:44:53;100937.00;;;0.80
69435;BMP180;56625;54.322;18.582;2023-11-19T04:47:22;100933.60;;;0.80
69435;BMP180;56625;54.322;18.582;2023-11-19T04:49:50;100930.80;;;0.78
69435;BMP180;56625;54.322;18.582;2023-11-19T04:52:18;100923.00;;;0.72
69435;BMP180;56625;54.322;18.582;2023-11-19T04:54:46;100923.00;;;0.74
69435;BMP180;56625;54.322;18.582;2023-11-19T04:57:17;100912.40;;;0.70
69435;BMP180;56625;54.322;18.582;2023-11-19T04:59:44;100908.60;;;0.70
69435;BMP180;56625;54.322;18.582;2023-11-19T05:02:13;100903.00;;;0.70
69435;BMP180;56625;54.322;18.582;2023-11-19T05:04:44;100903.60;;;0.70
69435;BMP180;56625;54.322;18.582;2023-11-19T05:07:15;100901.60;;;0.70
69435;BMP180;56625;54.322;18.582;2023-11-19T05:09:43;100901.80;;;0.70
69435;BMP180;56625;54.322;18.582;2023-11-19T05:12:11;100903.40;;;0.70
69435;BMP180;56625;54.322;18.582;2023-11-19T05:14:40;100900.00;;;0.70
69435;BMP180;56625;54.322;18.582;2023-11-19T05:17:08;100901.00;;;0.70
69435;BMP180;56625;54.322;18.582;2023-11-19T05:19:36;100911.80;;;0.70
69435;BMP180;56625;54.322;18.582;2023-11-19T05:22:04;100907.00;;;0.70
69435;BMP180;56625;54.322;18.582;2023-11-19T05:24:32;100904.00;;;0.70
69435;BMP180;56625;54.322;18.582;2023-11-19T05:27:00;100895.20;;;0.68
69435;BMP180;56625;54.322;18.582;2023-11-19T05:29:28;100889.60;;;0.60
69435;BMP180;56625;54.322;18.582;2023-11-19T05:31:57;100887.00;;;0.60
69435;BMP180;56625;54.322;18.582;2023-11-19T05:34:27;100874.80;;;0.60
69435;BMP180;56625;54.322;18.582;2023-11-19T05:36:55;100865.20;;;0.56
69435;BMP180;56625;54.322;18.582;2023-11-19T05:39:23;100862.20;;;0.50
69435;BMP180;56625;54.322;18.582;2023-11-19T05:41:52;100859.60;;;0.50
69435;BMP180;56625;54.322;18.582;2023-11-19T05:44:20;100853.40;;;0.42
69435;BMP180;56625;54.322;18.582;2023-11-19T05:46:48;100851.20;;;0.40
69435;BMP180;56625;54.322;18.582;2023-11-19T05:49:16;100845.40;;;0.40
69435;BMP180;56625;54.322;18.582;2023-11-19T05:51:44;100838.40;;;0.34
69435;BMP180;56625;54.322;18.582;2023-11-19T05:54:14;100848.80;;;0.30
69435;BMP180;56625;54.322;18.582;2023-11-19T05:56:42;100844.80;;;0.30
69435;BMP180;56625;54.322;18.582;2023-11-19T05:59:15;100844.80;;;0.30
69435;BMP180;56625;54.322;18.582;2023-11-19T06:01:45;100841.20;;;0.24
69435;BMP180;56625;54.322;18.582;2023-11-19T06:04:14;100841.20;;;0.20
69435;BMP180;56625;54.322;18.582;2023-11-19T06:06:42;100834.80;;;0.20
69435;BMP180;56625;54.322;18.582;2023-11-19T06:09:10;100837.20;;;0.20
69435;BMP180;56625;54.322;18.582;2023-11-19T06:11:40;100835.40;;;0.20
69435;BMP180;56625;54.322;18.582;2023-11-19T06:14:08;100828.40;;;0.20
69435;BMP180;56625;54.322;18.582;2023-11-19T06:16:36;100822.60;;;0.10
69435;BMP180;56625;54.322;18.582;2023-11-19T06:19:05;100827.40;;;0.10
69435;BMP180;56625;54.322;18.582;2023-11-19T06:21:33;100821.00;;;0.10
69435;BMP180;56625;54.322;18.582;2023-11-19T06:24:01;100821.20;;;0.10
69435;BMP180;56625;54.322;18.582;2023-11-19T06:26:30;100816.40;;;0.08
69435;BMP180;56625;54.322;18.582;2023-11-19T06:28:58;100810.00;;;0.00
69435;BMP180;56625;54.322;18.582;2023-11-19T06:31:26;100808.80;;;0.00
69435;BMP180;56625;54.322;18.582;2023-11-19T06:33:54;100810.80;;;0.00
69435;BMP180;56625;54.322;18.582;2023-11-19T06:36:22;100817.20;;;0.00
69435;BMP180;56625;54.322;18.582;2023-11-19T06:38:50;100809.40;;;0.00
69435;BMP180;56625;54.322;18.582;2023-11-19T06:41:18;100807.80;;;0.00
69435;BMP180;56625;54.322;18.582;2023-11-19T06:43:46;100806.20;;;0.00
69435;BMP180;56625;54.322;18.582;2023-11-19T06:46:17;100800.60;;;0.00
69435;BMP180;56625;54.322;18.582;2023-11-19T06:48:45;100795.00;;;0.00
69435;BMP180;56625;54.322;18.582;2023-11-19T06:51:14;100787.60;;;0.00
69435;BMP180;56625;54.322;18.582;2023-11-19T06:53:43;100785.00;;;0.00
69435;BMP180;56625;54.322;18.582;2023-11-19T06:56:38;100782.20;;;0.00
69435;BMP180;56625;54.322;18.582;2023-11-19T06:59:07;100779.60;;;0.08
69435;BMP180;56625;54.322;18.582;2023-11-19T07:01:36;100783.60;;;0.10
69435;BMP180;56625;54.322;18.582;2023-11-19T07:04:05;100776.20;;;0.10
69435;BMP180;56625;54.322;18.582;2023-11-19T07:06:37;100772.40;;;0.10
69435;BMP180;56625;54.322;18.582;2023-11-19T07:09:08;100766.40;;;0.10
69435;BMP180;56625;54.322;18.582;2023-11-19T07:11:39;100766.40;;;0.10
69435;BMP180;56625;54.322;18.582;2023-11-19T07:14:08;100760.40;;;0.10
69435;BMP180;56625;54.322;18.582;2023-11-19T07:16:38;100760.20;;;0.12
69435;BMP180;56625;54.322;18.582;2023-11-19T07:19:07;100752.20;;;0.20
69435;BMP180;56625;54.322;18.582;2023-11-19T07:21:35;100756.20;;;0.20
69435;BMP180;56625;54.322;18.582;2023-11-19T07:24:07;100750.00;;;0.20
69435;BMP180;56625;54.322;18.582;2023-11-19T07:26:41;100751.60;;;0.24
69435;BMP180;56625;54.322;18.582;2023-11-19T07:29:10;100743.00;;;0.28
69435;BMP180;56625;54.322;18.582;2023-11-19T07:31:39;100743.00;;;0.30
69435;BMP180;56625;54.322;18.582;2023-11-19T07:34:07;100741.80;;;0.30
69435;BMP180;56625;54.322;18.582;2023-11-19T07:36:37;100730.60;;;0.38
69435;BMP180;56625;54.322;18.582;2023-11-19T07:39:08;100729.60;;;0.40
69435;BMP180;56625;54.322;18.582;2023-11-19T07:41:36;100732.20;;;0.40
69435;BMP180;56625;54.322;18.582;2023-11-19T07:44:04;100721.80;;;0.40
69435;BMP180;56625;54.322;18.582;2023-11-19T07:46:33;100715.40;;;0.50
69435;BMP180;56625;54.322;18.582;2023-11-19T07:49:01;100708.60;;;0.50
69435;BMP180;56625;54.322;18.582;2023-11-19T07:51:30;100702.60;;;0.50
69435;BMP180;56625;54.322;18.582;2023-11-19T07:54:00;100700.20;;;0.50
69435;BMP180;56625;54.322;18.582;2023-11-19T07:56:28;100700.00;;;0.50
69435;BMP180;56625;54.322;18.582;2023-11-19T07:58:56;100698.20;;;0.50
69435;BMP180;56625;54.322;18.582;2023-11-19T08:01:24;100690.60;;;0.50
69435;BMP180;56625;54.322;18.582;2023-11-19T08:03:53;100691.40;;;0.60
69435;BMP180;56625;54.322;18.582;2023-11-19T08:06:24;100687.00;;;0.60
69435;BMP180;56625;54.322;18.582;2023-11-19T08:08:52;100681.80;;;0.60
69435;BMP180;56625;54.322;18.582;2023-11-19T08:11:20;100677.60;;;0.66
69435;BMP180;56625;54.322;18.582;2023-11-19T08:13:48;100676.20;;;0.70
69435;BMP180;56625;54.322;18.582;2023-11-19T08:16:17;100669.00;;;0.70
69435;BMP180;56625;54.322;18.582;2023-11-19T08:18:45;100665.60;;;0.80
69435;BMP180;56625;54.322;18.582;2023-11-19T08:21:13;100662.20;;;0.84
69435;BMP180;56625;54.322;18.582;2023-11-19T08:23:42;100660.20;;;0.90
69435;BMP180;56625;54.322;18.582;2023-11-19T08:26:11;100663.60;;;0.94
69435;BMP180;56625;54.322;18.582;2023-11-19T08:28:39;100660.40;;;1.00
69435;BMP180;56625;54.322;18.582;2023-11-19T08:31:07;100652.20;;;1.00
69435;BMP180;56625;54.322;18.582;2023-11-19T08:33:37;100648.40;;;1.00
69435;BMP180;56625;54.322;18.582;2023-11-19T08:36:06;100649.00;;;1.00
69435;BMP180;56625;54.322;18.582;2023-11-19T08:38:34;100636.60;;;1.00
69435;BMP180;56625;54.322;18.582;2023-11-19T08:41:03;100629.60;;;1.00
69435;BMP180;56625;54.322;18.582;2023-11-19T08:43:31;100620.00;;;1.00
69435;BMP180;56625;54.322;18.582;2023-11-19T08:45:59;100610.20;;;1.00
69435;BMP180;56625;54.322;18.582;2023-11-19T08:48:27;100613.00;;;1.00
69435;BMP180;56625;54.322;18.582;2023-11-19T08:50:55;100600.40;;;1.00
69435;BMP180;56625;54.322;18.582;2023-11-19T08:53:24;100596.20;;;1.00
69435;BMP180;56625;54.322;18.582;2023-11-19T08:55:52;100591.40;;;1.00
69435;BMP180;56625;54.322;18.582;2023-11-19T08:58:20;100591.80;;;1.08
69435;BMP180;56625;54.322;18.582;2023-11-19T09:00:49;100589.40;;;1.10
69435;BMP180;56625;54.322;18.582;2023-11-19T09:03:17;100581.20;;;1.16
69435;BMP180;56625;54.322;18.582;2023-11-19T09:05:46;100580.60;;;1.20
69435;BMP180;56625;54.322;18.582;2023-11-19T09:08:14;100577.60;;;1.20
69435;BMP180;56625;54.322;18.582;2023-11-19T09:10:42;100576.40;;;1.20
69435;BMP180;56625;54.322;18.582;2023-11-19T09:13:10;100576.40;;;1.20
69435;BMP180;56625;54.322;18.582;2023-11-19T09:15:38;100566.20;;;1.20
69435;BMP180;56625;54.322;18.582;2023-11-19T09:18:07;100567.20;;;1.20
69435;BMP180;56625;54.322;18.582;2023-11-19T09:20:35;100566.80;;;1.20
69435;BMP180;56625;54.322;18.582;2023-11-19T09:23:07;100557.40;;;1.20
69435;BMP180;56625;54.322;18.582;2023-11-19T09:25:37;100559.00;;;1.20
69435;BMP180;56625;54.322;18.582;2023-11-19T09:28:08;100550.40;;;1.20
69435;BMP180;56625;54.322;18.582;2023-11-19T09:30:36;100553.40;;;1.18
69435;BMP180;56625;54.322;18.582;2023-11-19T09:33:05;100552.00;;;1.20
69435;BMP180;56625;54.322;18.582;2023-11-19T09:35:34;100548.00;;;1.24
69435;BMP180;56625;54.322;18.582;2023-11-19T09:38:02;100539.80;;;1.30
69435;BMP180;56625;54.322;18.582;2023-11-19T09:40:32;100535.00;;;1.30
69435;BMP180;56625;54.322;18.582;2023-11-19T09:43:01;100529.00;;;1.40
69435;BMP180;56625;54.322;18.582;2023-11-19T09:45:44;100519.80;;;1.40
69435;BMP180;56625;54.322;18.582;2023-11-19T09:48:19;100523.20;;;1.40
69435;BMP180;56625;54.322;18.582;2023-11-19T09:50:48;100517.20;;;1.40
69435;BMP180;56625;54.322;18.582;2023-11-19T09:53:16;100514.60;;;1.40
69435;BMP180;56625;54.322;18.582;2023-11-19T09:55:44;100515.00;;;1.40
69435;BMP180;56625;54.322;18.582;2023-11-19T09:58:14;100516.00;;;1.50
69435;BMP180;56625;54.322;18.582;2023-11-19T10:00:43;100511.20;;;1.50
69435;BMP180;56625;54.322;18.582;2023-11-19T10:03:22;100508.40;;;1.50
69435;BMP180;56625;54.322;18.582;2023-11-19T10:05:51;100502.00;;;1.50
69435;BMP180;56625;54.322;18.582;2023-11-19T10:08:19;100501.00;;;1.50
69435;BMP180;56625;54.322;18.582;2023-11-19T10:10:47;100490.60;;;1.50
69435;BMP180;56625;54.322;18.582;2023-11-19T10:13:15;100484.60;;;1.50
69435;BMP180;56625;54.322;18.582;2023-11-19T10:15:44;100477.60;;;1.40
69435;BMP180;56625;54.322;18.582;2023-11-19T10:18:14;100473.60;;;1.40
69435;BMP180;56625;54.322;18.582;2023-11-19T10:20:42;100471.20;;;1.40
69435;BMP180;56625;54.322;18.582;2023-11-19T10:23:12;100459.20;;;1.30
69435;BMP180;56625;54.322;18.582;2023-11-19T10:25:40;100452.80;;;1.30
69435;BMP180;56625;54.322;18.582;2023-11-19T10:28:08;100442.20;;;1.30
69435;BMP180;56625;54.322;18.582;2023-11-19T10:30:36;100439.00;;;1.30
69435;BMP180;56625;54.322;18.582;2023-11-19T10:33:07;100432.40;;;1.30
69435;BMP180;56625;54.322;18.582;2023-11-19T10:35:52;100425.60;;;1.30
69435;BMP180;56625;54.322;18.582;2023-11-19T10:38:27;100419.80;;;1.30
69435;BMP180;56625;54.322;18.582;2023-11-19T10:40:56;100416.40;;;1.30
69435;BMP180;56625;54.322;18.582;2023-11-19T10:43:24;100410.60;;;1.36
69435;BMP180;56625;54.322;18.582;2023-11-19T10:45:53;100411.00;;;1.38
69435;BMP180;56625;54.322;18.582;2023-11-19T10:48:21;100404.00;;;1.36
69435;BMP180;56625;54.322;18.582;2023-11-19T10:50:53;100403.60;;;1.32
69435;BMP180;56625;54.322;18.582;2023-11-19T10:53:25;100396.20;;;1.40
69435;BMP180;56625;54.322;18.582;2023-11-19T10:55:57;100385.00;;;1.40
69435;BMP180;56625;54.322;18.582;2023-11-19T10:58:29;100384.40;;;1.40
69435;BMP180;56625;54.322;18.582;2023-11-19T11:01:13;100383.40;;;1.40
69435;BMP180;56625;54.322;18.582;2023-11-19T11:03:44;100377.80;;;1.50
69435;BMP180;56625;54.322;18.582;2023-11-19T11:06:14;100371.40;;;1.50
69435;BMP180;56625;54.322;18.582;2023-11-19T11:08:42;100366.80;;;1.60
69435;BMP180;56625;54.322;18.582;2023-11-19T11:11:16;100363.80;;;1.60
69435;BMP180;56625;54.322;18.582;2023-11-19T11:13:51;100359.60;;;1.60
69435;BMP180;56625;54.322;18.582;2023-11-19T11:16:22;100355.00;;;1.60
69435;BMP180;56625;54.322;18.582;2023-11-19T11:18:52;100341.80;;;1.70
69435;BMP180;56625;54.322;18.582;2023-11-19T11:21:24;100340.60;;;1.70
69435;BMP180;56625;54.322;18.582;2023-11-19T11:24:29;100342.00;;;1.70
69435;BMP180;56625;54.322;18.582;2023-11-19T11:27:53;100335.80;;;1.64
69435;BMP180;56625;54.322;18.582;2023-11-19T11:30:59;100331.80;;;1.60
69435;BMP180;56625;54.322;18.582;2023-11-19T11:37:10;100316.40;;;1.70
69435;BMP180;56625;54.322;18.582;2023-11-19T11:39:42;100315.00;;;1.70
69435;BMP180;56625;54.322;18.582;2023-11-19T11:50:16;100301.60;;;1.70
69435;BMP180;56625;54.322;18.582;2023-11-19T11:55:52;100291.20;;;1.68
69435;BMP180;56625;54.322;18.582;2023-11-19T11:58:29;100286.00;;;1.60
69435;BMP180;56625;54.322;18.582;2023-11-19T12:01:04;100288.00;;;1.60
69435;BMP180;56625;54.322;18.582;2023-11-19T12:03:33;100278.20;;;1.60
69435;BMP180;56625;54.322;18.582;2023-11-19T12:06:02;100273.40;;;1.60
69435;BMP180;56625;54.322;18.582;2023-11-19T12:08:34;100268.20;;;1.50
69435;BMP180;56625;54.322;18.582;2023-11-19T12:11:20;100263.20;;;1.50
69435;BMP180;56625;54.322;18.582;2023-11-19T12:13:55;100260.60;;;1.48
69435;BMP180;56625;54.322;18.582;2023-11-19T12:16:26;100257.80;;;1.48
69435;BMP180;56625;54.322;18.582;2023-11-19T12:19:04;100255.40;;;1.48
69435;BMP180;56625;54.322;18.582;2023-11-19T12:21:36;100253.80;;;1.50
69435;BMP180;56625;54.322;18.582;2023-11-19T12:24:07;100246.00;;;1.50
69435;BMP180;56625;54.322;18.582;2023-11-19T12:26:37;100245.80;;;1.50
69435;BMP180;56625;54.322;18.582;2023-11-19T12:29:06;100231.20;;;1.50
69435;BMP180;56625;54.322;18.582;2023-11-19T12:31:37;100234.20;;;1.48
69435;BMP180;56625;54.322;18.582;2023-11-19T12:34:07;100232.20;;;1.48
69435;BMP180;56625;54.322;18.582;2023-11-19T12:36:41;100227.20;;;1.48
69435;BMP180;56625;54.322;18.582;2023-11-19T12:39:10;100217.40;;;1.40
69435;BMP180;56625;54.322;18.582;2023-11-19T12:41:51;100213.20;;;1.40
69435;BMP180;56625;54.322;18.582;2023-11-19T12:44:20;100208.60;;;1.40
69435;BMP180;56625;54.322;18.582;2023-11-19T12:47:06;100202.20;;;1.40
69435;BMP180;56625;54.322;18.582;2023-11-19T12:49:35;100197.80;;;1.40
69435;BMP180;56625;54.322;18.582;2023-11-19T12:52:12;100194.00;;;1.40
69435;BMP180;56625;54.322;18.582;2023-11-19T12:54:40;100193.40;;;1.40
69435;BMP180;56625;54.322;18.582;2023-11-19T12:57:09;100191.80;;;1.40
69435;BMP180;56625;54.322;18.582;2023-11-19T12:59:37;100187.80;;;1.50
69435;BMP180;56625;54.322;18.582;2023-11-19T13:02:05;100176.20;;;1.52
69435;BMP180;56625;54.322;18.582;2023-11-19T13:04:35;100172.60;;;1.50
69435;BMP180;56625;54.322;18.582;2023-11-19T13:07:03;100165.60;;;1.50
69435;BMP180;56625;54.322;18.582;2023-11-19T13:09:33;100160.00;;;1.54
69435;BMP180;56625;54.322;18.582;2023-11-19T13:12:14;100158.80;;;1.60
69435;BMP180;56625;54.322;18.582;2023-11-19T13:14:43;100147.80;;;1.50
69435;BMP180;56625;54.322;18.582;2023-11-19T13:17:15;100148.00;;;1.52
69435;BMP180;56625;54.322;18.582;2023-11-19T13:19:43;100146.40;;;1.50
69435;BMP180;56625;54.322;18.582;2023-11-19T13:22:11;100135.80;;;1.50
69435;BMP180;56625;54.322;18.582;2023-11-19T13:24:39;100135.40;;;1.50
69435;BMP180;56625;54.322;18.582;2023-11-19T13:27:08;100135.80;;;1.50
69435;BMP180;56625;54.322;18.582;2023-11-19T13:29:36;100128.40;;;1.50
69435;BMP180;56625;54.322;18.582;2023-11-19T13:32:04;100127.20;;;1.50
69435;BMP180;56625;54.322;18.582;2023-11-19T13:34:33;100130.80;;;1.50
69435;BMP180;56625;54.322;18.582;2023-11-19T13:37:01;100127.60;;;1.50
69435;BMP180;56625;54.322;18.582;2023-11-19T13:39:30;100130.60;;;1.48
69435;BMP180;56625;54.322;18.582;2023-11-19T13:41:59;100125.20;;;1.40
69435;BMP180;56625;54.322;18.582;2023-11-19T13:44:30;100117.00;;;1.40
69435;BMP180;56625;54.322;18.582;2023-11-19T13:46:58;100114.40;;;1.40
69435;BMP180;56625;54.322;18.582;2023-11-19T13:49:26;100114.40;;;1.40
69435;BMP180;56625;54.322;18.582;2023-11-19T13:51:56;100115.60;;;1.40
69435;BMP180;56625;54.322;18.582;2023-11-19T13:54:30;100115.40;;;1.40
69435;BMP180;56625;54.322;18.582;2023-11-19T13:56:59;100112.80;;;1.40
69435;BMP180;56625;54.322;18.582;2023-11-19T13:59:28;100115.40;;;1.40
69435;BMP180;56625;54.322;18.582;2023-11-19T14:02:01;100112.60;;;1.40
69435;BMP180;56625;54.322;18.582;2023-11-19T14:04:30;100111.00;;;1.40
69435;BMP180;56625;54.322;18.582;2023-11-19T14:06:58;100106.80;;;1.40
69435;BMP180;56625;54.322;18.582;2023-11-19T14:09:27;100107.80;;;1.40
69435;BMP180;56625;54.322;18.582;2023-11-19T14:11:57;100103.40;;;1.40
69435;BMP180;56625;54.322;18.582;2023-11-19T14:14:26;100105.80;;;1.40
69435;BMP180;56625;54.322;18.582;2023-11-19T14:16:55;100110.00;;;1.38
69435;BMP180;56625;54.322;18.582;2023-11-19T14:19:42;100102.60;;;1.40
69435;BMP180;56625;54.322;18.582;2023-11-19T14:22:10;100100.80;;;1.40
69435;BMP180;56625;54.322;18.582;2023-11-19T14:24:40;100100.80;;;1.40
69435;BMP180;56625;54.322;18.582;2023-11-19T14:27:11;100098.60;;;1.40